createdAt,value
2018-09-20T06:35:44.692Z,21.60
2018-09-20T06:38:12.048Z,20.00
2018-09-20T06:40:39.497Z,19.90
2018-09-20T06:43:07.509Z,19.90
2018-09-20T06:45:35.032Z,19.90
2018-09-20T06:48:02.460Z,20.00
2018-09-20T06:50:30.216Z,20.00
2018-09-20T06:52:57.647Z,20.10
2018-09-20T06:55:25.033Z,20.10
2018-09-20T06:57:52.730Z,20.20
2018-09-20T07:00:20.280Z,20.30
2018-09-20T07:02:47.848Z,20.40
2018-09-20T07:05:15.329Z,20.50
2018-09-20T07:07:42.812Z,20.60
2018-09-20T07:10:10.352Z,20.50
2018-09-20T07:12:37.858Z,20.50
2018-09-20T07:15:05.518Z,20.60
2018-09-20T07:17:32.929Z,20.80
2018-09-20T07:20:00.334Z,21.10
2018-09-20T07:22:27.856Z,21.30
2018-09-20T07:24:55.355Z,21.30
2018-09-20T07:27:25.660Z,21.40
2018-09-20T07:29:54.285Z,21.60
2018-09-20T07:32:22.296Z,21.50
2018-09-20T07:34:49.751Z,21.60
2018-09-20T07:37:17.201Z,21.50
2018-09-20T07:39:44.668Z,21.50
2018-09-20T07:42:12.527Z,21.70
2018-09-20T07:44:39.955Z,21.60
2018-09-20T07:47:07.763Z,21.50
2018-09-20T07:49:35.195Z,21.70
2018-09-20T07:52:14.864Z,21.80
2018-09-20T07:54:42.408Z,22.10
2018-09-20T08:00:02.885Z,22.10
2018-09-20T08:02:31.138Z,22.20
2018-09-20T08:04:58.958Z,22.40
2018-09-20T08:07:26.650Z,22.50
2018-09-20T08:09:54.368Z,22.50
2018-09-20T08:12:22.097Z,22.50
2018-09-20T08:14:50.489Z,22.60
2018-09-20T08:17:19.125Z,22.60
2018-09-20T08:19:47.292Z,22.50
2018-09-20T08:22:15.413Z,22.50
2018-09-20T08:24:43.013Z,22.60
2018-09-20T08:27:10.527Z,22.60
2018-09-20T08:29:37.976Z,22.70
2018-09-20T08:32:05.703Z,22.90
2018-09-20T08:34:33.207Z,22.90
2018-09-20T08:37:00.751Z,23.10
2018-09-20T08:39:29.129Z,23.20
2018-09-20T08:41:57.431Z,23.50
2018-09-20T08:44:25.066Z,23.60
2018-09-20T08:46:53.737Z,23.70
2018-09-20T08:49:21.357Z,23.70
2018-09-20T08:51:48.927Z,24.00
2018-09-20T08:54:16.412Z,24.40
2018-09-20T08:56:43.944Z,24.60
2018-09-20T08:59:11.500Z,24.70
2018-09-20T09:01:39.021Z,25.20
2018-09-20T09:04:06.720Z,25.40
2018-09-20T09:06:34.228Z,25.70
2018-09-20T09:09:01.670Z,25.90
2018-09-20T09:11:29.292Z,25.80
2018-09-20T09:13:56.794Z,25.80
2018-09-20T09:16:24.257Z,26.10
2018-09-20T09:18:51.764Z,26.40
2018-09-20T09:21:19.350Z,26.60
2018-09-20T09:23:46.947Z,26.90
2018-09-20T09:26:14.475Z,27.20
2018-09-20T09:28:42.156Z,27.50
2018-09-20T09:31:09.635Z,27.30
2018-09-20T09:33:37.154Z,27.40
2018-09-20T09:36:04.585Z,27.50
2018-09-20T09:38:32.188Z,27.70
2018-09-20T09:40:59.663Z,28.00
2018-09-20T09:43:27.181Z,28.00
2018-09-20T09:45:54.670Z,28.10
2018-09-20T09:48:22.183Z,28.50
2018-09-20T09:50:49.701Z,28.40
2018-09-20T09:53:17.208Z,28.60
2018-09-20T09:55:44.731Z,28.80
2018-09-20T09:58:12.205Z,28.70
2018-09-20T10:00:41.706Z,28.80
2018-09-20T10:03:09.204Z,28.80
2018-09-20T10:05:36.706Z,29.10
2018-09-20T10:08:04.307Z,29.20
2018-09-20T10:10:31.932Z,29.30
2018-09-20T10:12:59.336Z,29.40
2018-09-20T10:15:26.855Z,29.30
2018-09-20T10:17:54.566Z,29.10
2018-09-20T10:20:21.996Z,29.50
2018-09-20T10:22:49.521Z,29.90
2018-09-20T10:25:17.004Z,30.10
2018-09-20T10:27:44.440Z,30.10
2018-09-20T10:30:11.985Z,30.20
2018-09-20T10:32:39.473Z,30.70
2018-09-20T10:35:07.084Z,30.60
2018-09-20T10:37:34.996Z,30.40
2018-09-20T10:40:02.780Z,30.40
2018-09-20T10:42:30.596Z,30.50
2018-09-20T10:44:58.352Z,30.40
2018-09-20T11:33:22.457Z,30.80
2018-09-20T11:35:49.930Z,31.80
2018-09-20T11:38:17.413Z,31.80
2018-09-20T11:40:45.072Z,31.60
2018-09-20T11:43:12.624Z,31.50
2018-09-20T11:45:40.403Z,31.60
2018-09-20T11:48:08.000Z,31.80
2018-09-20T11:50:35.633Z,31.80
2018-09-20T11:53:03.171Z,31.90
2018-09-20T11:55:30.777Z,31.80
2018-09-20T11:57:58.438Z,31.50
2018-09-20T12:00:26.107Z,31.80
2018-09-20T12:02:53.711Z,31.90
2018-09-20T12:05:21.738Z,32.10
2018-09-20T12:07:50.111Z,32.00
2018-09-20T12:10:18.508Z,32.20
2018-09-20T12:12:46.649Z,32.40
2018-09-20T12:15:14.270Z,32.40
2018-09-20T12:17:41.945Z,32.70
2018-09-20T12:20:09.395Z,32.90
2018-09-20T12:22:37.005Z,32.90
2018-09-20T12:25:04.606Z,32.60
2018-09-20T12:27:32.112Z,32.40
2018-09-20T12:29:59.593Z,32.40
2018-09-20T12:32:33.622Z,32.20
2018-09-20T12:35:05.592Z,32.20
2018-09-20T12:37:42.096Z,32.20
2018-09-20T13:35:42.139Z,32.60
2018-09-20T13:38:09.819Z,34.80
2018-09-20T13:40:38.059Z,34.50
2018-09-20T13:43:06.059Z,34.60
2018-09-20T13:45:34.528Z,34.70
2018-09-20T13:48:02.028Z,34.80
2018-09-20T13:50:29.428Z,34.40
2018-09-20T13:52:56.874Z,34.40
2018-09-20T13:55:24.241Z,34.60
2018-09-20T13:57:51.681Z,34.90
2018-09-20T14:00:19.170Z,34.70
2018-09-20T14:02:46.608Z,34.80
2018-09-20T14:05:14.041Z,34.90
2018-09-20T14:07:41.503Z,34.60
2018-09-20T14:10:08.995Z,34.50
2018-09-20T14:12:36.410Z,34.50
2018-09-20T14:15:04.689Z,34.70
2018-09-20T14:17:32.184Z,34.80
2018-09-20T14:19:59.763Z,34.60
2018-09-20T14:22:27.325Z,34.70
2018-09-20T14:24:55.002Z,35.00
2018-09-20T14:27:22.760Z,35.10
2018-09-20T14:29:50.508Z,35.00
2018-09-20T14:32:18.170Z,35.20
2018-09-20T14:34:45.764Z,35.00
2018-09-20T14:37:13.345Z,34.80
2018-09-20T14:39:40.835Z,34.50
2018-09-20T14:42:08.316Z,34.40
2018-09-20T14:44:35.932Z,34.30
2018-09-20T14:47:03.619Z,34.00
2018-09-20T14:49:31.195Z,33.80
2018-09-20T14:51:58.693Z,33.70
2018-09-20T14:54:26.329Z,33.90
2018-09-20T14:56:53.964Z,33.90
2018-09-20T14:59:21.433Z,33.70
2018-09-20T15:01:48.914Z,33.80
2018-09-20T15:04:16.488Z,33.70
2018-09-20T15:06:43.883Z,33.30
2018-09-20T15:09:13.007Z,33.20
2018-09-20T15:11:40.613Z,33.10
2018-09-20T15:14:08.326Z,33.20
2018-09-20T15:16:35.977Z,32.90
2018-09-20T15:19:03.686Z,33.20
2018-09-20T15:21:31.099Z,33.30
2018-09-20T15:23:59.371Z,33.20
2018-09-20T15:26:26.927Z,33.20
2018-09-20T15:28:54.751Z,33.10
2018-09-20T15:31:22.329Z,33.00
2018-09-20T15:33:49.928Z,32.80
2018-09-20T15:36:17.455Z,32.70
2018-09-20T15:38:44.985Z,32.50
2018-09-20T15:41:12.488Z,32.70
2018-09-20T15:43:39.861Z,32.50
2018-09-20T15:46:07.540Z,32.60
2018-09-20T15:48:34.977Z,32.90
2018-09-20T15:51:02.455Z,32.90
2018-09-20T15:53:29.878Z,32.80
2018-09-20T15:55:57.383Z,32.90
2018-09-20T15:58:24.864Z,32.80
2018-09-20T16:00:52.313Z,32.60
2018-09-20T16:03:20.372Z,32.60
2018-09-20T16:05:47.943Z,32.50
2018-09-20T16:08:15.609Z,32.80
2018-09-20T16:10:43.311Z,32.70
2018-09-20T16:13:10.900Z,32.60
2018-09-20T16:15:40.344Z,32.60
2018-09-20T16:18:08.103Z,32.70
2018-09-20T16:20:35.613Z,32.30
2018-09-20T16:23:03.183Z,32.20
2018-09-20T16:25:30.652Z,31.90
2018-09-20T16:28:07.033Z,31.70
2018-09-20T16:30:58.602Z,31.40
2018-09-20T16:33:47.816Z,31.30
2018-09-20T16:36:48.680Z,31.00
2018-09-20T16:39:22.666Z,30.90
2018-09-20T16:41:54.403Z,30.80
2018-09-20T16:44:21.783Z,30.90
2018-09-20T16:46:49.150Z,30.80
2018-09-20T16:49:16.689Z,30.60
2018-09-20T16:51:44.077Z,30.70
2018-09-20T16:54:11.612Z,30.50
2018-09-20T16:56:38.988Z,30.40
2018-09-20T16:59:06.674Z,30.10
2018-09-20T17:01:34.111Z,30.00
2018-09-20T17:04:01.505Z,29.90
2018-09-20T17:06:28.966Z,29.70
2018-09-20T17:08:56.932Z,29.60
2018-09-20T17:11:24.596Z,29.50
2018-09-20T17:13:55.681Z,29.40
2018-09-20T17:16:23.317Z,29.30
2018-09-20T17:18:51.392Z,29.20
2018-09-20T17:21:18.823Z,29.10
2018-09-20T17:23:46.244Z,28.90
2018-09-20T17:26:13.607Z,28.80
2018-09-20T17:28:41.045Z,28.80
2018-09-20T17:31:08.447Z,28.60
2018-09-20T17:33:35.921Z,28.50
2018-09-20T17:36:03.611Z,28.50
2018-09-20T17:38:32.071Z,28.40
2018-09-20T17:41:09.821Z,28.40
2018-09-20T17:43:43.399Z,28.30
2018-09-20T17:46:11.039Z,28.20
2018-09-20T17:48:38.612Z,28.20
2018-09-20T17:51:06.795Z,28.10
2018-09-20T17:53:34.645Z,28.00
2018-09-20T17:56:02.408Z,27.90
2018-09-20T17:58:30.181Z,28.00
2018-09-20T18:00:57.823Z,27.90
2018-09-20T18:03:25.387Z,27.80
2018-09-20T18:05:52.720Z,27.70
2018-09-20T18:08:20.195Z,27.60
2018-09-20T18:10:47.718Z,27.50
2018-09-20T18:13:15.202Z,27.40
2018-09-20T18:15:42.622Z,27.40
2018-09-20T18:18:10.244Z,27.40
2018-09-20T18:20:37.643Z,27.30
2018-09-20T18:23:05.006Z,27.30
2018-09-20T18:25:32.449Z,27.10
2018-09-20T18:27:59.889Z,27.10
2018-09-20T18:30:27.280Z,27.00
2018-09-20T18:32:54.791Z,26.90
2018-09-20T18:35:22.284Z,26.90
2018-09-20T18:37:49.795Z,26.80
2018-09-20T18:40:17.307Z,26.70
2018-09-20T18:42:44.732Z,26.70
2018-09-20T18:45:12.194Z,26.70
2018-09-20T18:47:39.796Z,26.70
2018-09-20T18:50:07.268Z,26.70
2018-09-20T18:52:34.861Z,26.70
2018-09-20T18:55:02.344Z,26.60
2018-09-20T18:57:29.881Z,26.60
2018-09-20T18:59:57.398Z,26.50
2018-09-20T19:02:24.881Z,26.50
2018-09-20T19:04:52.372Z,26.40
2018-09-20T19:07:19.945Z,26.40
2018-09-20T19:09:47.559Z,26.40
2018-09-20T19:12:16.844Z,26.30
2018-09-20T19:14:44.369Z,26.20
2018-09-20T19:17:11.840Z,26.20
2018-09-20T19:19:39.637Z,26.20
2018-09-20T19:22:07.085Z,26.10
2018-09-20T19:24:34.589Z,25.90
2018-09-20T19:27:05.432Z,25.80
2018-09-20T19:29:37.385Z,25.80
2018-09-20T19:32:04.952Z,25.80
2018-09-20T19:34:32.376Z,25.70
2018-09-20T19:36:59.795Z,25.70
2018-09-20T19:39:27.344Z,25.60
2018-09-20T19:41:55.025Z,25.60
2018-09-20T19:44:23.491Z,25.60
2018-09-20T19:46:55.533Z,25.60
2018-09-20T19:49:23.714Z,25.60
2018-09-20T19:51:51.089Z,25.40
2018-09-20T19:54:18.670Z,25.30
2018-09-20T19:56:46.285Z,25.20
2018-09-20T19:59:13.744Z,25.10
2018-09-20T20:01:53.248Z,25.20
2018-09-20T20:04:22.442Z,25.10
2018-09-20T20:09:43.183Z,25.00
2018-09-20T20:12:11.730Z,25.00
2018-09-20T20:14:39.137Z,25.10
2018-09-20T20:17:07.109Z,25.10
2018-09-20T20:19:34.617Z,25.10
2018-09-20T20:22:02.220Z,25.00
2018-09-20T20:24:29.677Z,25.00
2018-09-20T20:26:57.060Z,25.00
2018-09-20T20:29:24.483Z,24.90
2018-09-20T20:31:51.861Z,24.80
2018-09-20T20:34:19.338Z,24.70
2018-09-20T20:36:46.767Z,24.70
2018-09-20T20:39:14.174Z,24.60
2018-09-20T20:41:41.589Z,24.60
2018-09-20T20:44:08.986Z,24.50
2018-09-20T20:46:36.388Z,24.50
2018-09-20T20:49:03.726Z,24.40
2018-09-20T20:51:31.142Z,24.30
2018-09-20T20:53:58.583Z,24.20
2018-09-20T20:56:26.034Z,24.10
2018-09-20T20:58:53.472Z,24.00
2018-09-20T21:01:21.123Z,24.00
2018-09-20T21:03:49.339Z,23.90
2018-09-20T21:06:17.396Z,23.90
2018-09-20T21:08:45.265Z,23.90
2018-09-20T21:11:12.751Z,23.70
2018-09-20T21:13:40.381Z,23.80
2018-09-20T21:16:07.785Z,23.70
2018-09-20T21:18:35.211Z,23.70
2018-09-20T21:21:02.746Z,23.60
2018-09-20T21:23:30.231Z,23.60
2018-09-20T21:25:57.676Z,23.50
2018-09-20T21:28:26.146Z,23.40
2018-09-20T21:30:53.578Z,23.40
2018-09-20T21:33:21.026Z,23.40
2018-09-20T21:35:48.458Z,23.40
2018-09-20T21:38:15.836Z,23.40
2018-09-20T21:40:43.318Z,23.10
2018-09-20T21:43:10.735Z,22.90
2018-09-20T21:45:38.205Z,22.90
2018-09-20T21:48:05.888Z,23.00
2018-09-20T21:50:33.231Z,22.80
2018-09-20T21:53:00.779Z,22.70
2018-09-20T21:55:28.371Z,22.70
2018-09-20T21:57:55.840Z,22.50
2018-09-20T22:00:23.310Z,22.50
2018-09-20T22:02:56.345Z,22.50
2018-09-20T22:05:23.834Z,22.70
2018-09-20T22:07:51.220Z,22.70
2018-09-20T22:10:18.663Z,22.40
2018-09-20T22:12:46.130Z,22.20
2018-09-20T22:15:18.245Z,22.10
2018-09-20T22:17:45.743Z,22.30
2018-09-20T22:20:13.236Z,22.40
2018-09-20T22:22:40.788Z,22.40
2018-09-20T22:25:08.253Z,22.20
2018-09-20T22:27:35.623Z,22.10
2018-09-20T22:30:03.126Z,22.10
2018-09-20T22:32:31.029Z,22.10
2018-09-20T22:34:58.515Z,22.10
2018-09-20T22:37:25.888Z,22.10
2018-09-20T22:39:53.547Z,22.00
2018-09-20T22:42:21.003Z,22.10
2018-09-20T22:44:48.514Z,22.20
2018-09-20T22:47:16.012Z,22.10
2018-09-20T22:49:43.446Z,21.90
2018-09-20T22:52:10.802Z,21.80
2018-09-20T22:54:38.285Z,21.50
2018-09-20T22:57:05.667Z,21.60
2018-09-20T22:59:33.129Z,21.30
2018-09-20T23:02:00.586Z,21.30
2018-09-20T23:04:28.016Z,21.30
2018-09-20T23:06:55.412Z,21.30
2018-09-20T23:09:22.808Z,21.50
2018-09-20T23:11:50.316Z,21.60
2018-09-20T23:14:17.713Z,21.60
2018-09-20T23:16:45.327Z,21.50
2018-09-20T23:19:12.749Z,21.50
2018-09-20T23:21:40.334Z,21.50
2018-09-20T23:24:07.734Z,21.40
2018-09-20T23:26:35.069Z,21.40
2018-09-20T23:29:02.601Z,21.30
2018-09-20T23:31:30.031Z,21.30
2018-09-20T23:33:57.475Z,21.40
2018-09-20T23:36:24.865Z,21.30
2018-09-20T23:38:52.347Z,21.20
2018-09-20T23:41:19.733Z,21.20
2018-09-20T23:43:47.145Z,21.20
2018-09-20T23:46:14.595Z,21.20
2018-09-20T23:48:42.003Z,21.10
2018-09-20T23:51:09.399Z,21.20
2018-09-20T23:53:36.787Z,21.30
2018-09-20T23:56:04.319Z,21.20
2018-09-20T23:58:31.758Z,21.10
